Time;durP1;ratioP1;P1;durP2;ratioP2;P2;SDS_P1;SDS_P2;PMS_P1;PMS_P2;Temp;Humidity;BMP_temperature;BMP_pressure;BME280_temperature;BME280_humidity;BME280_pressure;Samples;Min_cycle;Max_cycle;Signal;HPM_P1;HPM_P2
2024/01/24 00:01:47;;;;;;;10.55;6.13;;;;;;;0.82;64.47;94887.41;5091948;28;20476;-70
2024/01/24 00:04:12;;;;;;;8.98;5.80;;;;;;;0.64;63.67;94841.94;5092382;28;20424;-70
2024/01/24 00:06:38;;;;;;;7.03;5.15;;;;;;;0.77;64.03;94870.53;5110201;28;20821;-70
2024/01/24 00:09:04;;;;;;;7.28;4.93;;;;;;;0.83;64.72;94886.38;5110225;28;20036;-70
2024/01/24 00:11:30;;;;;;;9.90;5.35;;;;;;;0.96;63.46;94862.56;5110356;28;20031;-70
2024/01/24 00:13:55;;;;;;;7.28;4.25;;;;;;;0.80;63.50;94872.69;5091657;28;20028;-70
2024/01/24 00:16:21;;;;;;;11.55;5.72;;;;;;;0.82;63.91;94890.00;5110461;28;20081;-70
2024/01/24 00:18:46;;;;;;;11.07;5.40;;;;;;;0.82;63.85;94884.78;5109979;28;20126;-70
2024/01/24 00:21:11;;;;;;;10.02;4.90;;;;;;;0.88;64.01;94902.22;5110037;28;20028;-70
2024/01/24 00:23:37;;;;;;;8.07;5.75;;;;;;;0.77;63.44;94865.31;5110128;28;20031;-71
2024/01/24 00:26:02;;;;;;;8.15;5.55;;;;;;;0.97;63.08;94899.03;5109999;28;20040;-69
2024/01/24 00:28:29;;;;;;;6.93;5.05;;;;;;;1.05;63.06;94908.38;5110688;28;20555;-70
2024/01/24 00:30:55;;;;;;;10.77;5.55;;;;;;;1.05;62.43;94892.66;5110057;28;20253;-70
2024/01/24 00:33:20;;;;;;;10.13;5.22;;;;;;;1.05;62.77;94903.13;5113533;28;20485;-70
2024/01/24 00:35:46;;;;;;;11.02;6.20;;;;;;;1.02;62.48;94908.84;5113648;28;20028;-70
2024/01/24 00:38:11;;;;;;;7.85;5.07;;;;;;;1.00;62.06;94898.56;5095173;28;20042;-70
2024/01/24 00:40:37;;;;;;;6.88;4.60;;;;;;;1.16;61.67;94911.00;5113564;28;20020;-70
2024/01/24 00:43:02;;;;;;;5.65;4.28;;;;;;;0.90;62.12;94902.75;5114357;28;20488;-70
2024/01/24 00:45:28;;;;;;;7.32;5.00;;;;;;;1.05;61.40;94918.84;5113628;28;20092;-70
2024/01/24 00:47:53;;;;;;;6.68;4.00;;;;;;;0.92;61.62;94900.72;5094831;28;20088;-70
2024/01/24 00:50:19;;;;;;;8.32;4.28;;;;;;;0.82;61.87;94892.63;5113447;28;20450;-70
2024/01/24 00:52:44;;;;;;;7.63;5.13;;;;;;;0.99;61.66;94914.50;5113034;28;20047;-70
2024/01/24 00:55:10;;;;;;;7.38;5.03;;;;;;;0.83;62.03;94909.94;5113750;28;20110;-70
2024/01/24 00:57:35;;;;;;;7.28;4.45;;;;;;;0.84;61.88;94893.22;5113306;28;20089;-70
2024/01/24 01:00:01;;;;;;;9.82;5.22;;;;;;;0.97;61.16;94900.84;5113436;28;20036;-70
2024/01/24 01:02:26;;;;;;;6.10;4.20;;;;;;;0.82;61.15;94890.81;5113150;28;20028;-70
2024/01/24 01:04:52;;;;;;;10.02;4.78;;;;;;;0.78;62.07;94914.03;5112892;28;20127;-70
2024/01/24 01:07:17;;;;;;;9.45;5.32;;;;;;;0.75;62.34;94905.81;5113402;28;20019;-70
2024/01/24 01:09:43;;;;;;;14.70;5.60;;;;;;;0.71;61.99;94892.38;5112842;28;20036;-70
2024/01/24 01:12:08;;;;;;;8.02;5.10;;;;;;;0.63;62.90;94889.31;5113069;28;20111;-70
2024/01/24 01:14:34;;;;;;;7.85;5.25;;;;;;;0.86;62.23;94909.50;5112981;28;20036;-70
2024/01/24 01:16:59;;;;;;;9.73;5.28;;;;;;;0.68;62.00;94887.63;5112834;28;20032;-70
2024/01/24 01:19:25;;;;;;;14.77;5.50;;;;;;;0.46;62.42;94865.59;5113213;28;20030;-70
2024/01/24 01:21:50;;;;;;;7.13;5.43;;;;;;;0.77;62.49;94890.69;5112496;28;20038;-70
2024/01/24 01:24:15;;;;;;;9.35;5.40;;;;;;;0.98;61.66;94912.94;5112634;28;20547;-70
2024/01/24 01:26:41;;;;;;;10.73;5.20;;;;;;;1.07;61.33;94899.28;5093952;28;20046;-70
2024/01/24 01:29:06;;;;;;;9.63;5.07;;;;;;;0.93;61.20;94876.13;5112629;28;20043;-70
2024/01/24 01:31:32;;;;;;;8.38;5.50;;;;;;;1.21;60.64;94897.22;5112970;28;20032;-70
2024/01/24 01:33:57;;;;;;;9.48;5.55;;;;;;;1.21;60.64;94902.47;5112690;28;20595;-70
2024/01/24 01:36:23;;;;;;;8.23;5.00;;;;;;;0.76;61.89;94889.91;5112420;28;20032;-70
2024/01/24 01:38:49;;;;;;;8.57;5.55;;;;;;;0.90;62.14;94905.38;5112450;28;20126;-70
2024/01/24 01:41:14;;;;;;;8.48;5.28;;;;;;;0.83;62.00;94883.75;5112417;28;20220;-70
2024/01/24 01:43:40;;;;;;;10.75;5.55;;;;;;;0.97;61.83;94888.56;5111283;28;20503;-70
2024/01/24 01:46:10;;;;;;;8.88;6.35;;;;;;;1.16;61.22;94900.53;5112992;28;20024;-70
2024/01/24 01:48:37;;;;;;;13.13;6.22;;;;;;;0.77;61.20;94875.78;5111981;28;20028;-70
2024/01/24 01:51:02;;;;;;;9.60;6.45;;;;;;;0.87;61.61;94888.31;5112379;28;20115;-70
2024/01/24 01:53:28;;;;;;;13.10;6.13;;;;;;;0.91;61.59;94876.34;5112259;28;20178;-70
2024/01/24 01:55:55;;;;;;;8.50;5.85;;;;;;;0.89;61.62;94877.63;5111822;28;20114;-70
2024/01/24 01:58:21;;;;;;;9.85;5.78;;;;;;;0.71;61.43;94865.41;5112750;28;20461;-70
2024/01/24 02:00:49;;;;;;;11.90;6.50;;;;;;;0.74;61.27;94854.50;5112071;28;20114;-70
2024/01/24 02:03:14;;;;;;;8.43;5.55;;;;;;;0.70;61.46;94854.13;5111845;28;20031;-70
2024/01/24 02:05:41;;;;;;;9.40;5.70;;;;;;;0.70;61.30;94854.13;5111701;28;20039;-70
2024/01/24 02:08:07;;;;;;;10.50;6.28;;;;;;;0.68;61.62;94866.66;5111726;28;20038;-70
2024/01/24 02:10:33;;;;;;;8.57;5.35;;;;;;;0.81;60.89;94870.88;5111576;28;20023;-70
2024/01/24 02:12:59;;;;;;;10.38;5.03;;;;;;;0.72;60.62;94856.53;5112456;28;20069;-70
2024/01/24 02:15:26;;;;;;;9.82;5.50;;;;;;;0.68;60.79;94858.81;5111751;28;20030;-70
2024/01/24 02:17:52;;;;;;;7.10;5.10;;;;;;;0.84;60.57;94874.88;5111799;28;20031;-70
2024/01/24 02:20:18;;;;;;;10.40;6.63;;;;;;;0.76;60.35;94858.47;5111499;28;20031;-70
2024/01/24 02:22:44;;;;;;;12.85;7.03;;;;;;;0.62;61.07;94872.00;5093072;28;20464;-70
2024/01/24 02:25:09;;;;;;;9.30;5.88;;;;;;;0.61;61.12;94849.44;5111606;28;20054;-70
2024/01/24 02:27:35;;;;;;;10.15;5.25;;;;;;;0.66;60.56;94849.56;5111220;28;20042;-70
2024/01/24 02:30:00;;;;;;;11.43;6.47;;;;;;;0.58;60.56;94855.94;5111421;28;20420;-70
2024/01/24 02:32:26;;;;;;;12.65;6.88;;;;;;;0.56;60.63;94860.59;5111433;28;20098;-70
2024/01/24 02:34:51;;;;;;;13.48;6.00;;;;;;;0.29;61.76;94868.06;5110919;28;20028;-70
2024/01/24 02:37:19;;;;;;;9.82;6.88;;;;;;;0.18;61.97;94847.09;5111926;28;20399;-70
2024/01/24 02:39:45;;;;;;;10.00;7.10;;;;;;;0.17;62.19;94848.91;5110996;28;20106;-70
2024/01/24 02:42:11;;;;;;;11.63;6.90;;;;;;;0.44;61.24;94849.31;5111283;28;20551;-70
2024/01/24 02:44:36;;;;;;;11.98;7.32;;;;;;;0.64;60.85;94865.50;5111361;28;20080;-70
2024/01/24 02:47:02;;;;;;;8.93;6.47;;;;;;;0.48;60.86;94832.13;5111257;28;20123;-70
2024/01/24 02:49:27;;;;;;;9.35;5.70;;;;;;;0.57;60.62;94846.50;5112062;28;20103;-70
2024/01/24 02:51:53;;;;;;;10.68;6.80;;;;;;;0.76;59.85;94861.09;5111149;28;20070;-70
2024/01/24 02:54:18;;;;;;;10.05;6.53;;;;;;;0.69;59.67;94857.75;5110578;28;20080;-70
2024/01/24 02:56:44;;;;;;;9.25;6.45;;;;;;;0.61;59.83;94849.44;5110815;28;20057;-70
2024/01/24 02:59:10;;;;;;;11.88;6.38;;;;;;;0.49;60.39;94861.75;5111021;28;20024;-68
2024/01/24 03:01:35;;;;;;;12.30;7.72;;;;;;;0.41;60.39;94847.13;5110743;28;20061;-70
2024/01/24 03:04:01;;;;;;;10.40;7.25;;;;;;;0.45;60.66;94866.59;5111147;28;20503;-70
2024/01/24 03:06:26;;;;;;;10.32;6.85;;;;;;;0.35;61.02;94866.34;5110754;28;20043;-70
2024/01/24 03:08:56;;;;;;;12.48;6.75;;;;;;;0.51;60.40;94865.72;5110673;28;20104;-70
2024/01/24 03:11:22;;;;;;;13.32;7.05;;;;;;;0.55;60.47;94874.69;5110628;28;20130;-70
2024/01/24 03:13:48;;;;;;;12.68;6.88;;;;;;;0.52;60.32;94862.06;5110382;28;20020;-70
2024/01/24 03:16:14;;;;;;;13.25;7.28;;;;;;;0.43;60.84;94868.66;5111133;28;20456;-70
2024/01/24 03:18:39;;;;;;;9.40;5.78;;;;;;;0.50;60.37;94847.59;5110664;28;20032;-70
2024/01/24 03:21:09;;;;;;;9.48;6.35;;;;;;;0.54;60.63;94870.50;5110793;28;20036;-70
2024/01/24 03:23:38;;;;;;;10.73;6.53;;;;;;;0.42;60.25;94835.66;5110703;28;20632;-70
2024/01/24 03:26:07;;;;;;;9.02;6.57;;;;;;;0.51;60.68;94841.34;5110132;28;20039;-70
2024/01/24 03:28:34;;;;;;;13.52;7.85;;;;;;;0.63;60.57;94842.19;5109913;28;20075;-70
2024/01/24 03:31:00;;;;;;;9.73;7.10;;;;;;;0.69;59.77;94818.47;5110294;28;20474;-70
2024/01/24 03:33:26;;;;;;;10.77;8.02;;;;;;;0.62;59.69;94817.00;5109503;28;20055;-70
2024/01/24 03:35:52;;;;;;;10.40;6.53;;;;;;;0.39;60.59;94838.72;5109495;28;20500;-70
2024/01/24 03:38:19;;;;;;;11.82;7.40;;;;;;;0.41;60.59;94838.47;5109371;28;20106;-70
2024/01/24 03:40:44;;;;;;;10.95;7.13;;;;;;;0.48;60.29;94860.94;5110293;28;20028;-70
2024/01/24 03:43:13;;;;;;;11.25;7.20;;;;;;;0.48;60.48;94849.66;5110417;28;20678;-70
2024/01/24 03:45:39;;;;;;;10.07;6.80;;;;;;;0.44;59.73;94833.63;5109787;28;20081;-70
2024/01/24 03:48:06;;;;;;;11.35;6.65;;;;;;;0.61;59.34;94839.78;5110169;28;20031;-70
2024/01/24 03:50:32;;;;;;;11.75;6.95;;;;;;;0.63;59.30;94847.41;5110310;28;20035;-72
2024/01/24 03:52:57;;;;;;;10.38;6.85;;;;;;;0.64;59.61;94859.50;5110564;28;20060;-70
2024/01/24 03:55:23;;;;;;;11.40;6.97;;;;;;;0.48;59.55;94845.22;5092497;28;20066;-70
2024/01/24 03:57:48;;;;;;;8.23;6.22;;;;;;;0.71;58.93;94860.97;5110055;28;20060;-70
2024/01/24 04:00:16;;;;;;;9.77;6.40;;;;;;;0.58;59.04;94826.34;5110661;28;20092;-70
2024/01/24 04:02:41;;;;;;;9.38;6.25;;;;;;;0.68;58.79;94850.97;5110221;28;20531;-70
2024/01/24 04:05:07;;;;;;;10.88;6.43;;;;;;;0.64;58.82;94831.47;5110105;28;20047;-70
2024/01/24 04:07:33;;;;;;;10.02;6.45;;;;;;;0.63;59.08;94850.84;5112494;28;20026;-70
2024/01/24 04:09:59;;;;;;;9.18;6.22;;;;;;;0.69;59.04;94860.38;5114835;28;20024;-70
2024/01/24 04:12:24;;;;;;;9.88;6.10;;;;;;;0.46;59.12;94852.50;5096114;28;20519;-70
2024/01/24 04:14:50;;;;;;;11.55;6.88;;;;;;;0.56;59.23;94883.34;5113945;28;20055;-70
2024/01/24 04:17:16;;;;;;;9.13;6.07;;;;;;;0.45;58.78;94850.13;5113786;28;20024;-70
2024/01/24 04:19:41;;;;;;;15.35;6.95;;;;;;;0.68;58.67;94874.53;5114036;28;20035;-70
2024/01/24 04:22:08;;;;;;;10.40;7.30;;;;;;;0.52;58.88;94882.22;5096273;28;20084;-70
2024/01/24 04:24:34;;;;;;;9.82;6.15;;;;;;;0.39;59.05;94851.81;5113864;28;20039;-70
2024/01/24 04:26:59;;;;;;;11.25;6.75;;;;;;;0.66;58.72;94879.19;5113677;28;20084;-70
2024/01/24 04:29:25;;;;;;;10.00;6.72;;;;;;;0.62;58.89;94896.34;5113930;28;20459;-70
2024/01/24 04:31:50;;;;;;;10.05;7.22;;;;;;;0.61;58.86;94886.91;5113895;28;20055;-70
2024/01/24 04:34:18;;;;;;;11.32;6.10;;;;;;;0.70;58.45;94872.47;5114157;28;20387;-70
2024/01/24 04:36:44;;;;;;;11.90;6.75;;;;;;;0.74;58.23;94880.69;5113788;28;20032;-70
2024/01/24 04:39:10;;;;;;;9.68;6.90;;;;;;;0.76;58.26;94895.13;5113778;28;20028;-70
2024/01/24 04:41:36;;;;;;;10.45;7.15;;;;;;;0.58;58.96;94897.84;5113872;28;20023;-71
2024/01/24 04:44:02;;;;;;;10.15;6.63;;;;;;;0.58;58.60;94882.13;5113536;28;20047;-70
2024/01/24 04:46:28;;;;;;;12.98;7.68;;;;;;;0.62;58.12;94857.09;5114266;28;20019;-70
2024/01/24 04:48:53;;;;;;;11.20;7.35;;;;;;;0.89;57.54;94882.88;5113525;28;20058;-70
2024/01/24 04:51:19;;;;;;;13.05;7.05;;;;;;;0.63;57.46;94863.94;5113238;28;20057;-70
2024/01/24 04:53:44;;;;;;;9.32;6.15;;;;;;;0.93;57.69;94900.53;5113088;28;20416;-70
2024/01/24 04:56:10;;;;;;;12.35;7.57;;;;;;;0.85;57.66;94885.13;5113089;28;20106;-70
2024/01/24 04:58:35;;;;;;;9.82;6.95;;;;;;;0.65;58.06;94892.47;5113035;28;20117;-70
2024/01/24 05:01:01;;;;;;;12.55;6.40;;;;;;;0.72;58.27;94901.84;5095358;28;20102;-71
2024/01/24 05:03:26;;;;;;;11.85;7.32;;;;;;;0.85;58.12;94916.53;5113325;28;20082;-70
2024/01/24 05:05:52;;;;;;;14.55;8.07;;;;;;;0.83;58.10;94917.81;5113164;28;20032;-70
2024/01/24 05:08:18;;;;;;;10.80;6.50;;;;;;;0.64;58.34;94910.00;5112943;28;20510;-70
2024/01/24 05:10:44;;;;;;;12.57;7.28;;;;;;;0.64;58.46;94914.47;5112698;28;20108;-70
2024/01/24 05:13:10;;;;;;;11.43;8.02;;;;;;;0.64;58.42;94927.56;5095538;28;20098;-70
2024/01/24 05:15:36;;;;;;;12.02;7.40;;;;;;;0.64;58.84;94944.03;5094354;28;20442;-70
2024/01/24 05:18:01;;;;;;;10.70;7.30;;;;;;;0.65;58.92;94940.41;5112430;28;20072;-70
2024/01/24 05:20:27;;;;;;;12.85;7.68;;;;;;;0.61;58.36;94917.53;5112936;28;20088;-70
2024/01/24 05:22:53;;;;;;;11.43;7.35;;;;;;;0.67;58.62;94948.84;5112916;28;20104;-70
2024/01/24 05:25:20;;;;;;;13.10;6.95;;;;;;;0.73;58.72;94941.94;5112832;28;20072;-70
2024/01/24 05:27:45;;;;;;;11.00;6.65;;;;;;;0.72;58.28;94933.28;5112454;28;20058;-70
2024/01/24 05:30:11;;;;;;;10.40;6.55;;;;;;;0.51;58.85;94922.50;5112285;28;20062;-70
2024/01/24 05:32:36;;;;;;;14.52;7.65;;;;;;;0.29;59.77;94936.09;5077475;28;20032;-70
2024/01/24 05:35:02;;;;;;;12.43;7.43;;;;;;;0.41;59.40;94938.75;5112848;28;20511;-70
2024/01/24 05:37:27;;;;;;;12.35;7.15;;;;;;;0.48;59.17;94929.00;5112421;28;20365;-70
2024/01/24 05:39:53;;;;;;;12.13;8.40;;;;;;;0.51;59.07;94928.53;5093651;28;20136;-70
2024/01/24 05:42:19;;;;;;;12.48;7.70;;;;;;;0.53;58.97;94918.66;5112443;28;20039;-71
2024/01/24 05:44:44;;;;;;;10.40;6.45;;;;;;;0.60;58.88;94931.63;5111810;28;20038;-69
2024/01/24 05:47:10;;;;;;;11.13;6.85;;;;;;;0.57;59.36;94951.22;5110919;28;20040;-69
2024/01/24 05:49:36;;;;;;;8.82;6.97;;;;;;;0.57;59.33;94947.78;5111453;28;20019;-69
2024/01/24 05:52:04;;;;;;;10.23;6.95;;;;;;;0.31;59.77;94930.63;5094119;28;20020;-69
2024/01/24 05:54:29;;;;;;;14.07;6.65;;;;;;;0.42;59.38;94916.78;5112088;28;20039;-69
2024/01/24 05:56:55;;;;;;;11.80;7.75;;;;;;;0.44;59.38;94925.22;5111177;28;20532;-69
2024/01/24 05:59:20;;;;;;;11.73;6.35;;;;;;;0.61;59.15;94918.31;5093586;28;20024;-69
2024/01/24 06:01:47;;;;;;;21.30;9.25;;;;;;;0.60;59.13;94940.28;5111986;28;20019;-69
2024/01/24 06:04:13;;;;;;;11.65;8.07;;;;;;;0.54;59.62;94933.34;5112457;28;20491;-69
2024/01/24 06:06:39;;;;;;;17.00;7.90;;;;;;;0.44;59.72;94943.56;5111937;28;20032;-69
2024/01/24 06:09:04;;;;;;;14.50;9.23;;;;;;;0.40;59.83;94915.44;5111422;28;20040;-69
2024/01/24 06:11:30;;;;;;;11.57;7.93;;;;;;;0.23;60.24;94915.25;5111926;28;20456;-69
2024/01/24 06:13:55;;;;;;;8.90;7.13;;;;;;;0.35;60.18;94923.91;5093077;28;20038;-69
2024/01/24 06:16:21;;;;;;;15.75;8.68;;;;;;;0.42;59.99;94929.88;5112031;28;20090;-69
2024/01/24 06:18:47;;;;;;;12.18;7.65;;;;;;;0.22;60.21;94924.91;5111536;28;20038;-69
2024/01/24 06:21:13;;;;;;;11.32;7.60;;;;;;;0.18;60.67;94923.75;5111680;28;20503;-69
2024/01/24 06:23:38;;;;;;;14.52;9.32;;;;;;;0.24;60.61;94927.31;5111129;28;20024;-69
2024/01/24 06:26:04;;;;;;;14.82;8.18;;;;;;;0.03;60.93;94914.69;5110196;28;20043;-69
2024/01/24 06:28:30;;;;;;;12.20;7.80;;;;;;;0.01;61.32;94921.97;5110982;28;20504;-69
2024/01/24 06:30:55;;;;;;;10.80;6.93;;;;;;;0.01;61.68;94924.59;5109647;28;20031;-70
2024/01/24 06:33:21;;;;;;;10.13;7.18;;;;;;;0.18;60.77;94908.06;5110418;28;20157;-69
2024/01/24 06:35:47;;;;;;;10.75;7.43;;;;;;;0.17;60.34;94892.56;5110005;28;20031;-69
2024/01/24 06:38:14;;;;;;;15.02;7.93;;;;;;;0.33;60.24;94915.50;5110142;28;20531;-69
2024/01/24 06:40:40;;;;;;;17.48;9.15;;;;;;;0.34;60.08;94911.88;5110168;28;20049;-69
2024/01/24 06:43:05;;;;;;;15.25;8.38;;;;;;;0.27;60.59;94919.00;5092327;28;20463;-69
2024/01/24 06:45:31;;;;;;;12.02;8.98;;;;;;;0.26;60.68;94912.97;5110281;28;20092;-69
2024/01/24 06:47:56;;;;;;;14.27;7.53;;;;;;;0.26;60.08;94896.47;5109931;28;20645;-69
2024/01/24 06:50:23;;;;;;;11.10;7.93;;;;;;;0.12;61.15;94910.75;5110101;28;20540;-69
2024/01/24 06:52:48;;;;;;;11.40;7.72;;;;;;;0.30;60.15;94898.41;5110025;28;20034;-69
2024/01/24 06:55:18;;;;;;;11.35;6.85;;;;;;;0.28;60.12;94910.13;5091727;28;20019;-69
2024/01/24 06:57:44;;;;;;;9.50;7.03;;;;;;;0.27;60.19;94909.34;5091180;28;20020;-69
2024/01/24 07:00:10;;;;;;;8.68;6.85;;;;;;;0.55;59.44;94913.97;5109658;28;20043;-69
2024/01/24 07:02:36;;;;;;;10.82;6.35;;;;;;;0.71;59.17;94917.78;5109879;28;20051;-69
2024/01/24 07:05:05;;;;;;;12.40;6.75;;;;;;;0.77;58.73;94904.59;5109644;28;20515;-69
2024/01/24 07:07:31;;;;;;;10.38;6.50;;;;;;;0.91;58.51;94904.38;5110223;28;20035;-70
2024/01/24 07:09:57;;;;;;;11.65;7.40;;;;;;;1.05;57.60;94897.88;5109699;28;20036;-69
2024/01/24 07:12:22;;;;;;;11.32;7.30;;;;;;;0.85;57.13;94865.97;5109251;28;20120;-69
2024/01/24 07:14:48;;;;;;;12.00;8.63;;;;;;;1.07;57.29;94890.63;5109902;28;20039;-69
2024/01/24 07:17:14;;;;;;;12.80;7.93;;;;;;;0.92;57.61;94904.16;5110094;28;20442;-69
2024/01/24 07:19:40;;;;;;;14.43;7.45;;;;;;;0.93;57.66;94900.53;5110034;28;20019;-70
2024/01/24 07:22:05;;;;;;;14.45;7.22;;;;;;;1.29;56.78;94899.47;5110232;28;20042;-69
2024/01/24 07:24:32;;;;;;;12.15;6.75;;;;;;;1.36;56.49;94904.63;5109871;28;20116;-69
2024/01/24 07:26:57;;;;;;;9.27;5.75;;;;;;;1.30;55.91;94895.03;5108871;28;20411;-70
2024/01/24 07:29:23;;;;;;;16.08;8.57;;;;;;;1.35;56.08;94909.06;5109019;28;20032;-69
2024/01/24 07:31:49;;;;;;;14.55;7.18;;;;;;;1.39;55.60;94909.38;5089359;28;20063;-69
2024/01/24 07:34:15;;;;;;;10.60;6.88;;;;;;;1.47;56.05;94928.19;5109544;28;20042;-69
2024/01/24 07:36:41;;;;;;;10.95;6.82;;;;;;;1.15;56.43;94916.47;5108951;28;20084;-69
2024/01/24 07:39:07;;;;;;;10.75;6.32;;;;;;;1.29;55.93;94917.81;5108870;28;20135;-69
2024/01/24 07:41:33;;;;;;;11.13;6.57;;;;;;;1.41;55.81;94933.56;5110123;28;20564;-69
2024/01/24 07:43:59;;;;;;;11.50;6.38;;;;;;;1.43;55.75;94929.69;5114095;28;20028;-69
2024/01/24 07:46:27;;;;;;;10.20;5.82;;;;;;;1.64;55.19;94944.84;5114658;28;20054;-69
2024/01/24 07:48:53;;;;;;;8.82;6.03;;;;;;;1.67;55.06;94954.06;5095182;28;20404;-69
2024/01/24 07:51:20;;;;;;;8.80;6.07;;;;;;;1.40;55.59;94938.00;5113575;28;20042;-69
2024/01/24 07:53:47;;;;;;;10.18;6.22;;;;;;;1.51;55.61;94928.56;5113667;28;20081;-69
2024/01/24 07:56:13;;;;;;;10.95;5.90;;;;;;;1.54;55.57;94938.56;5113586;28;20035;-69
2024/01/24 07:58:42;;;;;;;7.85;6.15;;;;;;;1.43;56.03;94957.72;5094813;28;20396;-69
2024/01/24 08:01:08;;;;;;;10.00;6.93;;;;;;;1.41;55.90;94939.63;5113790;28;20023;-69
2024/01/24 08:03:34;;;;;;;10.10;6.05;;;;;;;1.45;55.86;94943.38;5113500;28;20064;-69
2024/01/24 08:05:59;;;;;;;14.90;7.50;;;;;;;1.59;55.51;94944.72;5113170;28;20104;-69
2024/01/24 08:08:26;;;;;;;8.40;6.22;;;;;;;1.80;55.60;94950.41;5113405;28;20027;-69
2024/01/24 08:10:52;;;;;;;8.70;6.07;;;;;;;1.85;55.15;94955.75;5094567;28;20027;-69
2024/01/24 08:13:17;;;;;;;8.57;5.78;;;;;;;1.83;54.83;94948.13;5113273;28;20034;-69
2024/01/24 08:15:43;;;;;;;9.93;6.75;;;;;;;1.68;55.31;94939.91;5113209;28;20047;-69
2024/01/24 08:18:08;;;;;;;10.35;6.15;;;;;;;1.76;55.06;94938.78;5113218;28;20546;-69
2024/01/24 08:20:34;;;;;;;11.18;7.40;;;;;;;1.84;55.38;94944.47;5113181;28;20039;-69
2024/01/24 08:23:00;;;;;;;12.07;7.75;;;;;;;2.04;54.68;94954.63;5113303;28;20751;-69
2024/01/24 08:25:26;;;;;;;14.38;6.88;;;;;;;1.97;54.78;94952.09;5113420;28;20108;-69
2024/01/24 08:27:52;;;;;;;12.45;8.05;;;;;;;1.92;55.07;94970.38;5112787;28;20038;-69
2024/01/24 08:30:19;;;;;;;15.90;7.90;;;;;;;1.92;55.22;94977.44;5113008;28;20126;-69
2024/01/24 08:32:44;;;;;;;10.77;6.57;;;;;;;1.65;55.05;94941.19;5112531;28;20051;-69
2024/01/24 08:35:10;;;;;;;11.82;7.47;;;;;;;1.75;55.74;94966.03;5112640;28;20087;-68
2024/01/24 08:37:35;;;;;;;8.95;6.57;;;;;;;1.81;55.45;94965.13;5112834;28;20047;-68
2024/01/24 08:40:02;;;;;;;13.13;7.05;;;;;;;1.87;55.29;94953.72;5112641;28;20511;-68
2024/01/24 08:42:27;;;;;;;8.27;6.00;;;;;;;2.03;55.14;94945.13;5112302;28;20530;-68
2024/01/24 08:44:53;;;;;;;12.50;8.05;;;;;;;2.06;54.41;94934.16;5094108;28;20031;-68
2024/01/24 08:47:18;;;;;;;10.57;6.93;;;;;;;2.06;54.59;94952.53;5112423;28;20427;-68
2024/01/24 08:49:43;;;;;;;11.65;6.88;;;;;;;2.11;54.92;94944.75;5112128;28;20024;-69
2024/01/24 08:52:09;;;;;;;13.25;8.30;;;;;;;1.87;54.65;94933.53;5112077;28;20018;-68
2024/01/24 08:54:34;;;;;;;10.82;7.00;;;;;;;1.86;54.91;94925.88;5112462;28;20031;-68
2024/01/24 08:57:00;;;;;;;11.70;7.78;;;;;;;1.63;55.73;94927.50;5112429;28;20034;-68
2024/01/24 08:59:25;;;;;;;16.98;11.38;;;;;;;2.11;54.54;94944.00;5112501;28;20024;-68
2024/01/24 09:01:55;;;;;;;12.02;7.57;;;;;;;1.95;54.21;94942.88;5112356;28;20034;-68
2024/01/24 09:04:20;;;;;;;10.85;6.75;;;;;;;1.70;55.10;94952.81;5113184;28;20016;-68
2024/01/24 09:06:46;;;;;;;11.73;6.97;;;;;;;1.79;54.86;94943.56;5112115;28;20554;-68
2024/01/24 09:09:13;;;;;;;11.95;6.53;;;;;;;1.79;54.95;94957.47;5110911;28;20047;-68
2024/01/24 09:11:40;;;;;;;11.25;6.30;;;;;;;1.65;55.04;94919.41;5112279;28;20522;-68
2024/01/24 09:14:06;;;;;;;11.50;6.90;;;;;;;1.91;55.62;94954.88;5112020;28;20128;-68
2024/01/24 09:16:32;;;;;;;12.65;8.35;;;;;;;1.67;55.27;94918.13;5111969;28;20485;-68
2024/01/24 09:18:57;;;;;;;13.02;8.65;;;;;;;2.13;54.89;94961.09;5093969;28;20107;-69
2024/01/24 09:21:23;;;;;;;14.00;7.90;;;;;;;2.13;54.61;94929.59;5111700;28;20032;-69
2024/01/24 09:23:49;;;;;;;15.43;9.43;;;;;;;2.10;54.75;94919.56;5111714;28;20115;-68
2024/01/24 09:26:15;;;;;;;20.65;10.45;;;;;;;2.27;54.98;94919.63;5111688;28;20059;-68
2024/01/24 09:28:41;;;;;;;15.57;10.27;;;;;;;2.26;54.64;94921.44;5111899;28;20073;-69
2024/01/24 09:31:07;;;;;;;13.77;8.73;;;;;;;2.06;55.31;94919.22;5112238;28;20015;-68
2024/01/24 09:33:32;;;;;;;15.15;9.52;;;;;;;2.10;55.09;94893.34;5111975;28;20038;-68
2024/01/24 09:35:58;;;;;;;11.75;7.82;;;;;;;2.38;53.88;94924.03;5111886;28;20027;-68
2024/01/24 09:38:23;;;;;;;8.88;6.82;;;;;;;2.20;54.19;94922.41;5111513;28;20035;-68
2024/01/24 09:40:49;;;;;;;11.32;6.97;;;;;;;2.08;54.40;94921.63;5093116;28;20031;-69
2024/01/24 09:43:16;;;;;;;14.27;7.80;;;;;;;2.11;54.65;94913.28;5093477;28;20065;-69
2024/01/24 09:45:44;;;;;;;17.33;10.27;;;;;;;2.02;54.94;94898.94;5093088;28;20036;-69
2024/01/24 09:48:11;;;;;;;19.20;10.55;;;;;;;2.23;54.20;94905.38;5111024;28;20054;-70
2024/01/24 09:50:37;;;;;;;13.40;9.20;;;;;;;1.81;55.31;94889.06;5111472;28;20028;-69
2024/01/24 09:53:05;;;;;;;17.05;9.30;;;;;;;1.88;55.22;94882.66;5111267;28;20039;-70
2024/01/24 09:55:32;;;;;;;16.05;9.50;;;;;;;2.00;55.17;94882.63;5111904;28;20019;-69
2024/01/24 09:57:58;;;;;;;15.02;9.05;;;;;;;2.18;54.63;94892.94;5111501;28;20043;-70
2024/01/24 10:00:23;;;;;;;18.55;10.85;;;;;;;2.10;54.66;94890.72;5111022;28;20548;-70
2024/01/24 10:02:49;;;;;;;15.35;9.38;;;;;;;2.02;54.53;94870.88;5111318;28;20055;-70
2024/01/24 10:05:20;;;;;;;20.10;9.82;;;;;;;1.94;55.05;94875.69;5110152;28;20043;-70
2024/01/24 10:07:46;;;;;;;12.60;8.93;;;;;;;1.89;54.67;94854.59;5110733;28;20019;-69
2024/01/24 10:10:13;;;;;;;15.27;9.70;;;;;;;1.89;54.93;94875.59;5111454;28;20024;-70
2024/01/24 10:12:41;;;;;;;15.73;10.90;;;;;;;1.91;54.69;94848.09;5110934;28;20084;-69
2024/01/24 10:15:07;;;;;;;14.63;10.57;;;;;;;2.26;54.30;94879.44;5111051;28;20125;-69
2024/01/24 10:17:33;;;;;;;14.88;9.85;;;;;;;2.20;54.25;94854.16;5111100;28;20057;-69
2024/01/24 10:19:58;;;;;;;15.07;8.85;;;;;;;1.87;55.14;94869.78;5110935;28;20106;-70
2024/01/24 10:22:24;;;;;;;14.52;9.10;;;;;;;1.79;55.24;94851.75;5111388;28;20555;-69
2024/01/24 10:24:50;;;;;;;17.17;8.65;;;;;;;1.68;54.52;94806.16;5110278;28;20027;-69
2024/01/24 10:27:16;;;;;;;15.30;9.75;;;;;;;1.64;55.56;94845.19;5110161;28;20043;-69
2024/01/24 10:29:44;;;;;;;17.40;9.50;;;;;;;1.94;55.15;94862.56;5110256;28;20031;-69
2024/01/24 10:32:09;;;;;;;19.10;10.43;;;;;;;1.99;55.61;94860.84;5110524;28;20076;-69
2024/01/24 10:34:37;;;;;;;21.67;11.95;;;;;;;2.17;54.99;94844.09;5110699;28;20481;-69
2024/01/24 10:37:02;;;;;;;18.73;11.13;;;;;;;2.33;55.10;94835.47;5092548;28;20396;-69
2024/01/24 10:39:33;;;;;;;15.55;10.35;;;;;;;2.45;54.49;94835.41;5110588;28;20032;-69
2024/01/24 10:42:03;;;;;;;15.45;9.38;;;;;;;2.50;54.41;94838.91;5110369;28;20027;-69
2024/01/24 10:44:37;;;;;;;19.00;11.45;;;;;;;2.39;54.68;94804.84;5110382;28;20032;-69
2024/01/24 10:47:03;;;;;;;16.17;10.60;;;;;;;2.70;54.12;94827.94;5110368;28;20044;-69
2024/01/24 10:49:30;;;;;;;14.82;10.50;;;;;;;2.74;53.79;94810.69;5110525;28;20112;-70
2024/01/24 10:51:56;;;;;;;19.65;12.27;;;;;;;2.91;54.15;94815.91;5110342;28;20043;-69
2024/01/24 10:54:22;;;;;;;18.58;11.70;;;;;;;2.89;53.48;94810.13;5110384;28;20035;-69
2024/01/24 10:56:53;;;;;;;19.13;11.50;;;;;;;2.91;53.75;94802.75;5109797;28;20030;-69
2024/01/24 10:59:19;;;;;;;15.98;11.55;;;;;;;2.96;53.07;94821.22;5110158;28;20031;-69
2024/01/24 11:01:46;;;;;;;19.58;10.60;;;;;;;2.92;53.73;94814.88;5110560;28;20031;-69
2024/01/24 11:04:15;;;;;;;15.88;11.45;;;;;;;2.85;53.51;94803.72;5110803;28;20568;-70
2024/01/24 11:06:49;;;;;;;21.25;12.10;;;;;;;2.92;53.80;94788.59;5092358;28;20062;-70
2024/01/24 11:09:20;;;;;;;15.88;10.68;;;;;;;2.98;54.06;94790.28;5110211;28;20055;-70
2024/01/24 11:11:47;;;;;;;17.77;12.02;;;;;;;2.87;54.02;94773.56;5110464;28;20508;-70
2024/01/24 11:14:26;;;;;;;18.58;11.70;;;;;;;2.83;53.48;94774.28;5110566;28;20031;-70
2024/01/24 11:16:51;;;;;;;12.25;9.65;;;;;;;2.89;53.60;94783.84;5110088;28;20035;-70
2024/01/24 11:19:24;;;;;;;15.10;9.93;;;;;;;2.94;52.46;94781.25;5110709;28;20380;-70
2024/01/24 11:21:51;;;;;;;13.82;9.35;;;;;;;2.82;53.12;94772.69;5109663;28;20509;-70
2024/01/24 11:24:46;;;;;;;13.43;8.50;;;;;;;2.92;52.78;94793.84;5109587;28;20028;-69
2024/01/24 11:27:28;;;;;;;13.48;8.50;;;;;;;2.88;52.98;94787.50;5107118;28;20062;-70
2024/01/24 11:29:56;;;;;;;13.35;9.43;;;;;;;2.99;53.13;94781.31;5110080;28;20122;-69